sensor_id;sensor_type;location;lat;lon;timestamp;temperature;humidity
23147;DHT22;11742;53.532;-1.478;2024-02-21T00:00:15;13.60;99.90
23147;DHT22;11742;53.532;-1.478;2024-02-21T00:02:59;13.50;99.90
23147;DHT22;11742;53.532;-1.478;2024-02-21T00:05:45;13.50;99.90
23147;DHT22;11742;53.532;-1.478;2024-02-21T00:08:30;13.50;99.90
23147;DHT22;11742;53.532;-1.478;2024-02-21T00:11:14;13.50;99.90
23147;DHT22;11742;53.532;-1.478;2024-02-21T00:13:58;13.40;99.90
23147;DHT22;11742;53.532;-1.478;2024-02-21T00:16:42;13.40;99.90
23147;DHT22;11742;53.532;-1.478;2024-02-21T00:19:26;13.40;99.90
23147;DHT22;11742;53.532;-1.478;2024-02-21T00:22:10;13.40;99.90
23147;DHT22;11742;53.532;-1.478;2024-02-21T00:24:54;13.30;99.90
23147;DHT22;11742;53.532;-1.478;2024-02-21T00:27:39;13.30;99.90
23147;DHT22;11742;53.532;-1.478;2024-02-21T00:30:23;13.30;99.90
23147;DHT22;11742;53.532;-1.478;2024-02-21T00:33:07;13.30;99.90
23147;DHT22;11742;53.532;-1.478;2024-02-21T00:35:51;13.20;99.90
23147;DHT22;11742;53.532;-1.478;2024-02-21T00:38:35;13.20;99.90
23147;DHT22;11742;53.532;-1.478;2024-02-21T00:41:19;13.20;99.90
23147;DHT22;11742;53.532;-1.478;2024-02-21T00:44:04;13.20;99.90
23147;DHT22;11742;53.532;-1.478;2024-02-21T00:46:50;13.20;99.90
23147;DHT22;11742;53.532;-1.478;2024-02-21T00:49:35;13.10;99.90
23147;DHT22;11742;53.532;-1.478;2024-02-21T00:52:19;13.10;99.90
23147;DHT22;11742;53.532;-1.478;2024-02-21T00:55:04;13.10;99.90
23147;DHT22;11742;53.532;-1.478;2024-02-21T00:57:49;13.00;99.90
23147;DHT22;11742;53.532;-1.478;2024-02-21T01:00:33;13.00;99.90
23147;DHT22;11742;53.532;-1.478;2024-02-21T01:03:17;13.00;99.90
23147;DHT22;11742;53.532;-1.478;2024-02-21T01:06:01;13.00;99.90
23147;DHT22;11742;53.532;-1.478;2024-02-21T01:08:47;13.00;99.90
23147;DHT22;11742;53.532;-1.478;2024-02-21T01:11:34;13.00;99.90
23147;DHT22;11742;53.532;-1.478;2024-02-21T01:14:18;12.90;99.90
23147;DHT22;11742;53.532;-1.478;2024-02-21T01:17:03;12.90;99.90
23147;DHT22;11742;53.532;-1.478;2024-02-21T01:19:50;12.90;99.90
23147;DHT22;11742;53.532;-1.478;2024-02-21T01:22:34;12.90;99.90
23147;DHT22;11742;53.532;-1.478;2024-02-21T01:25:18;12.90;99.90
23147;DHT22;11742;53.532;-1.478;2024-02-21T01:28:02;12.80;99.90
23147;DHT22;11742;53.532;-1.478;2024-02-21T01:30:47;12.80;99.90
23147;DHT22;11742;53.532;-1.478;2024-02-21T01:33:31;12.80;99.90
23147;DHT22;11742;53.532;-1.478;2024-02-21T01:36:19;12.80;99.90
23147;DHT22;11742;53.532;-1.478;2024-02-21T01:39:03;12.80;99.90
23147;DHT22;11742;53.532;-1.478;2024-02-21T01:41:48;12.80;99.90
23147;DHT22;11742;53.532;-1.478;2024-02-21T01:44:32;12.70;99.90
23147;DHT22;11742;53.532;-1.478;2024-02-21T01:47:16;12.70;99.90
23147;DHT22;11742;53.532;-1.478;2024-02-21T01:50:01;12.70;99.90
23147;DHT22;11742;53.532;-1.478;2024-02-21T01:52:47;12.70;99.90
23147;DHT22;11742;53.532;-1.478;2024-02-21T01:55:33;12.70;99.90
23147;DHT22;11742;53.532;-1.478;2024-02-21T01:58:18;12.70;99.80
23147;DHT22;11742;53.532;-1.478;2024-02-21T02:01:04;12.60;99.80
23147;DHT22;11742;53.532;-1.478;2024-02-21T02:03:48;12.60;99.80
23147;DHT22;11742;53.532;-1.478;2024-02-21T02:06:33;12.60;99.80
23147;DHT22;11742;53.532;-1.478;2024-02-21T02:09:17;12.60;99.80
23147;DHT22;11742;53.532;-1.478;2024-02-21T02:12:02;12.60;99.80
23147;DHT22;11742;53.532;-1.478;2024-02-21T02:15:00;12.60;99.80
23147;DHT22;11742;53.532;-1.478;2024-02-21T02:17:45;12.60;99.80
23147;DHT22;11742;53.532;-1.478;2024-02-21T02:20:30;12.60;99.80
23147;DHT22;11742;53.532;-1.478;2024-02-21T02:23:29;12.60;99.80
23147;DHT22;11742;53.532;-1.478;2024-02-21T02:26:14;12.50;99.80
23147;DHT22;11742;53.532;-1.478;2024-02-21T02:28:58;12.50;99.80
23147;DHT22;11742;53.532;-1.478;2024-02-21T02:31:42;12.50;99.80
23147;DHT22;11742;53.532;-1.478;2024-02-21T02:34:27;12.50;99.80
23147;DHT22;11742;53.532;-1.478;2024-02-21T02:37:11;12.50;99.90
23147;DHT22;11742;53.532;-1.478;2024-02-21T02:39:55;12.50;99.90
23147;DHT22;11742;53.532;-1.478;2024-02-21T02:42:39;12.50;99.70
23147;DHT22;11742;53.532;-1.478;2024-02-21T02:45:24;12.50;99.80
23147;DHT22;11742;53.532;-1.478;2024-02-21T02:48:10;12.50;99.80
23147;DHT22;11742;53.532;-1.478;2024-02-21T02:50:54;12.50;99.90
23147;DHT22;11742;53.532;-1.478;2024-02-21T02:53:38;12.50;99.80
23147;DHT22;11742;53.532;-1.478;2024-02-21T02:56:23;12.50;99.80
23147;DHT22;11742;53.532;-1.478;2024-02-21T02:59:07;12.50;99.70
23147;DHT22;11742;53.532;-1.478;2024-02-21T03:01:51;12.50;99.70
23147;DHT22;11742;53.532;-1.478;2024-02-21T03:04:35;12.50;99.70
23147;DHT22;11742;53.532;-1.478;2024-02-21T03:07:20;12.50;99.70
23147;DHT22;11742;53.532;-1.478;2024-02-21T03:10:04;12.40;99.70
23147;DHT22;11742;53.532;-1.478;2024-02-21T03:12:48;12.40;99.90
23147;DHT22;11742;53.532;-1.478;2024-02-21T03:15:32;12.40;99.70
23147;DHT22;11742;53.532;-1.478;2024-02-21T03:18:17;12.40;99.70
23147;DHT22;11742;53.532;-1.478;2024-02-21T03:21:01;12.50;99.70
23147;DHT22;11742;53.532;-1.478;2024-02-21T03:23:46;12.40;99.80
23147;DHT22;11742;53.532;-1.478;2024-02-21T03:26:30;12.40;99.70
23147;DHT22;11742;53.532;-1.478;2024-02-21T03:29:15;12.40;99.70
23147;DHT22;11742;53.532;-1.478;2024-02-21T03:32:00;12.40;99.70
23147;DHT22;11742;53.532;-1.478;2024-02-21T03:34:44;12.40;99.70
23147;DHT22;11742;53.532;-1.478;2024-02-21T03:37:28;12.40;99.80
23147;DHT22;11742;53.532;-1.478;2024-02-21T03:40:12;12.40;99.70
23147;DHT22;11742;53.532;-1.478;2024-02-21T03:42:56;12.40;99.70
23147;DHT22;11742;53.532;-1.478;2024-02-21T03:45:40;12.40;99.80
23147;DHT22;11742;53.532;-1.478;2024-02-21T03:48:24;12.50;99.80
23147;DHT22;11742;53.532;-1.478;2024-02-21T03:51:08;12.40;99.80
23147;DHT22;11742;53.532;-1.478;2024-02-21T03:53:52;12.40;99.80
23147;DHT22;11742;53.532;-1.478;2024-02-21T03:56:38;12.40;99.80
23147;DHT22;11742;53.532;-1.478;2024-02-21T03:59:24;12.40;99.90
23147;DHT22;11742;53.532;-1.478;2024-02-21T04:02:08;12.40;99.80
23147;DHT22;11742;53.532;-1.478;2024-02-21T04:04:53;12.40;99.80
23147;DHT22;11742;53.532;-1.478;2024-02-21T04:07:38;12.40;99.80
23147;DHT22;11742;53.532;-1.478;2024-02-21T04:10:22;12.40;99.80
23147;DHT22;11742;53.532;-1.478;2024-02-21T04:13:06;12.40;99.90
23147;DHT22;11742;53.532;-1.478;2024-02-21T04:15:51;12.40;99.90
23147;DHT22;11742;53.532;-1.478;2024-02-21T04:18:35;12.40;99.90
23147;DHT22;11742;53.532;-1.478;2024-02-21T04:21:19;12.40;99.90
23147;DHT22;11742;53.532;-1.478;2024-02-21T04:24:03;12.40;99.90
23147;DHT22;11742;53.532;-1.478;2024-02-21T04:26:49;12.40;99.90
23147;DHT22;11742;53.532;-1.478;2024-02-21T04:29:33;12.40;99.90
23147;DHT22;11742;53.532;-1.478;2024-02-21T04:32:18;12.40;99.90
23147;DHT22;11742;53.532;-1.478;2024-02-21T04:35:02;12.40;99.90
23147;DHT22;11742;53.532;-1.478;2024-02-21T04:37:47;12.50;99.90
23147;DHT22;11742;53.532;-1.478;2024-02-21T04:40:31;12.50;99.90
23147;DHT22;11742;53.532;-1.478;2024-02-21T04:43:16;12.40;99.90
23147;DHT22;11742;53.532;-1.478;2024-02-21T04:46:00;12.50;99.90
23147;DHT22;11742;53.532;-1.478;2024-02-21T04:48:44;12.40;99.90
23147;DHT22;11742;53.532;-1.478;2024-02-21T04:51:28;12.40;99.90
23147;DHT22;11742;53.532;-1.478;2024-02-21T04:54:12;12.40;99.90
23147;DHT22;11742;53.532;-1.478;2024-02-21T04:56:56;12.50;99.90
23147;DHT22;11742;53.532;-1.478;2024-02-21T04:59:40;12.50;99.90
23147;DHT22;11742;53.532;-1.478;2024-02-21T05:02:24;12.50;99.90
23147;DHT22;11742;53.532;-1.478;2024-02-21T05:05:10;12.50;99.90
23147;DHT22;11742;53.532;-1.478;2024-02-21T05:07:54;12.50;99.90
23147;DHT22;11742;53.532;-1.478;2024-02-21T05:10:38;12.50;99.90
23147;DHT22;11742;53.532;-1.478;2024-02-21T05:13:23;12.50;99.90
23147;DHT22;11742;53.532;-1.478;2024-02-21T05:16:07;12.50;99.90
23147;DHT22;11742;53.532;-1.478;2024-02-21T05:18:51;12.50;99.90
23147;DHT22;11742;53.532;-1.478;2024-02-21T05:21:36;12.50;99.90
23147;DHT22;11742;53.532;-1.478;2024-02-21T05:24:20;12.50;99.90
23147;DHT22;11742;53.532;-1.478;2024-02-21T05:27:04;12.50;99.90
23147;DHT22;11742;53.532;-1.478;2024-02-21T05:29:48;12.50;99.90
23147;DHT22;11742;53.532;-1.478;2024-02-21T05:32:33;12.50;99.90
23147;DHT22;11742;53.532;-1.478;2024-02-21T05:35:17;12.50;99.90
23147;DHT22;11742;53.532;-1.478;2024-02-21T05:38:02;12.50;99.90
23147;DHT22;11742;53.532;-1.478;2024-02-21T05:40:55;12.50;99.90
23147;DHT22;11742;53.532;-1.478;2024-02-21T05:43:41;12.50;99.90
23147;DHT22;11742;53.532;-1.478;2024-02-21T05:46:25;12.50;99.90
23147;DHT22;11742;53.532;-1.478;2024-02-21T05:49:09;12.50;99.90
23147;DHT22;11742;53.532;-1.478;2024-02-21T05:51:53;12.50;99.90
23147;DHT22;11742;53.532;-1.478;2024-02-21T05:54:38;12.50;99.90
23147;DHT22;11742;53.532;-1.478;2024-02-21T05:57:24;12.50;99.90
23147;DHT22;11742;53.532;-1.478;2024-02-21T06:00:08;12.50;99.90
23147;DHT22;11742;53.532;-1.478;2024-02-21T06:02:52;12.50;99.90
23147;DHT22;11742;53.532;-1.478;2024-02-21T06:05:37;12.50;99.90
23147;DHT22;11742;53.532;-1.478;2024-02-21T06:08:22;12.50;99.90
23147;DHT22;11742;53.532;-1.478;2024-02-21T06:11:06;12.50;99.90
23147;DHT22;11742;53.532;-1.478;2024-02-21T06:13:51;12.50;99.90
23147;DHT22;11742;53.532;-1.478;2024-02-21T06:16:36;12.50;99.90
23147;DHT22;11742;53.532;-1.478;2024-02-21T06:19:20;12.50;99.90
23147;DHT22;11742;53.532;-1.478;2024-02-21T06:22:04;12.50;99.90
23147;DHT22;11742;53.532;-1.478;2024-02-21T06:24:51;12.50;99.90
23147;DHT22;11742;53.532;-1.478;2024-02-21T06:27:38;12.50;99.90
23147;DHT22;11742;53.532;-1.478;2024-02-21T06:30:22;12.50;99.90
23147;DHT22;11742;53.532;-1.478;2024-02-21T06:33:06;12.50;99.90
23147;DHT22;11742;53.532;-1.478;2024-02-21T06:35:51;12.50;99.90
23147;DHT22;11742;53.532;-1.478;2024-02-21T06:38:39;12.50;99.90
23147;DHT22;11742;53.532;-1.478;2024-02-21T06:41:23;12.50;99.90
23147;DHT22;11742;53.532;-1.478;2024-02-21T06:44:08;12.50;99.90
23147;DHT22;11742;53.532;-1.478;2024-02-21T06:46:53;12.50;99.90
23147;DHT22;11742;53.532;-1.478;2024-02-21T06:49:38;12.50;99.90
23147;DHT22;11742;53.532;-1.478;2024-02-21T06:52:22;12.50;99.90
23147;DHT22;11742;53.532;-1.478;2024-02-21T06:55:08;12.50;99.90
23147;DHT22;11742;53.532;-1.478;2024-02-21T06:57:52;12.50;99.90
23147;DHT22;11742;53.532;-1.478;2024-02-21T07:00:36;12.50;99.90
23147;DHT22;11742;53.532;-1.478;2024-02-21T07:03:20;12.50;99.90
23147;DHT22;11742;53.532;-1.478;2024-02-21T07:06:04;12.50;99.90
23147;DHT22;11742;53.532;-1.478;2024-02-21T07:08:49;12.50;99.90
23147;DHT22;11742;53.532;-1.478;2024-02-21T07:11:33;12.50;99.90
23147;DHT22;11742;53.532;-1.478;2024-02-21T07:14:18;12.50;99.90
23147;DHT22;11742;53.532;-1.478;2024-02-21T07:17:02;12.50;99.90
23147;DHT22;11742;53.532;-1.478;2024-02-21T07:19:47;12.50;99.90
23147;DHT22;11742;53.532;-1.478;2024-02-21T07:22:31;12.50;99.90
23147;DHT22;11742;53.532;-1.478;2024-02-21T07:25:15;12.50;99.90
23147;DHT22;11742;53.532;-1.478;2024-02-21T07:27:59;12.50;99.90
23147;DHT22;11742;53.532;-1.478;2024-02-21T07:30:43;12.40;99.90
23147;DHT22;11742;53.532;-1.478;2024-02-21T07:33:28;12.40;99.90
23147;DHT22;11742;53.532;-1.478;2024-02-21T07:36:14;12.40;99.90
23147;DHT22;11742;53.532;-1.478;2024-02-21T07:38:59;12.40;99.90
23147;DHT22;11742;53.532;-1.478;2024-02-21T07:41:43;12.40;99.90
23147;DHT22;11742;53.532;-1.478;2024-02-21T07:44:30;12.40;99.90
23147;DHT22;11742;53.532;-1.478;2024-02-21T07:47:15;12.40;99.90
23147;DHT22;11742;53.532;-1.478;2024-02-21T07:50:01;12.40;99.90
23147;DHT22;11742;53.532;-1.478;2024-02-21T07:52:45;12.40;99.90
23147;DHT22;11742;53.532;-1.478;2024-02-21T07:55:29;12.40;99.90
23147;DHT22;11742;53.532;-1.478;2024-02-21T07:58:14;12.40;99.90
23147;DHT22;11742;53.532;-1.478;2024-02-21T08:00:58;12.40;99.90
23147;DHT22;11742;53.532;-1.478;2024-02-21T08:03:43;12.30;99.90
23147;DHT22;11742;53.532;-1.478;2024-02-21T08:06:27;12.30;99.90
23147;DHT22;11742;53.532;-1.478;2024-02-21T08:09:11;12.30;99.90
23147;DHT22;11742;53.532;-1.478;2024-02-21T08:11:55;12.30;99.90
23147;DHT22;11742;53.532;-1.478;2024-02-21T08:14:39;12.30;99.90
23147;DHT22;11742;53.532;-1.478;2024-02-21T08:17:24;12.30;99.90
23147;DHT22;11742;53.532;-1.478;2024-02-21T08:20:09;12.30;99.90
23147;DHT22;11742;53.532;-1.478;2024-02-21T08:22:53;12.30;99.90
23147;DHT22;11742;53.532;-1.478;2024-02-21T08:25:38;12.30;99.90
23147;DHT22;11742;53.532;-1.478;2024-02-21T08:28:22;12.30;99.90
23147;DHT22;11742;53.532;-1.478;2024-02-21T08:31:06;12.30;99.90
23147;DHT22;11742;53.532;-1.478;2024-02-21T08:33:50;12.30;99.90
23147;DHT22;11742;53.532;-1.478;2024-02-21T08:36:35;12.20;99.90
23147;DHT22;11742;53.532;-1.478;2024-02-21T08:39:19;12.20;99.90
23147;DHT22;11742;53.532;-1.478;2024-02-21T08:42:04;12.20;99.90
23147;DHT22;11742;53.532;-1.478;2024-02-21T08:44:49;12.20;99.90
23147;DHT22;11742;53.532;-1.478;2024-02-21T08:47:33;12.20;99.90
23147;DHT22;11742;53.532;-1.478;2024-02-21T08:50:19;12.20;99.90
23147;DHT22;11742;53.532;-1.478;2024-02-21T08:53:03;12.20;99.90
23147;DHT22;11742;53.532;-1.478;2024-02-21T08:55:47;12.20;99.90
23147;DHT22;11742;53.532;-1.478;2024-02-21T08:58:32;12.20;99.90
23147;DHT22;11742;53.532;-1.478;2024-02-21T09:01:16;12.20;99.90
23147;DHT22;11742;53.532;-1.478;2024-02-21T09:04:00;12.20;99.90
23147;DHT22;11742;53.532;-1.478;2024-02-21T09:06:44;12.20;99.90
23147;DHT22;11742;53.532;-1.478;2024-02-21T09:09:30;12.20;99.90
23147;DHT22;11742;53.532;-1.478;2024-02-21T09:12:16;12.20;99.90
23147;DHT22;11742;53.532;-1.478;2024-02-21T09:15:00;12.20;99.90
23147;DHT22;11742;53.532;-1.478;2024-02-21T09:17:44;12.20;99.90
23147;DHT22;11742;53.532;-1.478;2024-02-21T09:20:28;12.20;99.90
23147;DHT22;11742;53.532;-1.478;2024-02-21T09:23:13;12.20;99.90
23147;DHT22;11742;53.532;-1.478;2024-02-21T09:25:58;12.20;99.90
23147;DHT22;11742;53.532;-1.478;2024-02-21T09:28:44;12.20;99.90
23147;DHT22;11742;53.532;-1.478;2024-02-21T09:31:29;12.20;99.90
23147;DHT22;11742;53.532;-1.478;2024-02-21T09:34:13;12.20;99.90
23147;DHT22;11742;53.532;-1.478;2024-02-21T09:36:57;12.20;99.90
23147;DHT22;11742;53.532;-1.478;2024-02-21T09:39:42;12.20;99.90
23147;DHT22;11742;53.532;-1.478;2024-02-21T09:42:38;12.20;99.90
23147;DHT22;11742;53.532;-1.478;2024-02-21T09:45:25;12.20;99.90
23147;DHT22;11742;53.532;-1.478;2024-02-21T09:48:35;12.20;99.90
23147;DHT22;11742;53.532;-1.478;2024-02-21T09:51:23;12.20;99.90
23147;DHT22;11742;53.532;-1.478;2024-02-21T09:54:09;12.20;99.90
23147;DHT22;11742;53.532;-1.478;2024-02-21T09:56:53;12.20;99.90
23147;DHT22;11742;53.532;-1.478;2024-02-21T09:59:37;12.20;99.90
23147;DHT22;11742;53.532;-1.478;2024-02-21T10:02:22;12.20;99.90
23147;DHT22;11742;53.532;-1.478;2024-02-21T10:05:06;12.20;99.90
23147;DHT22;11742;53.532;-1.478;2024-02-21T10:07:52;12.20;99.90
23147;DHT22;11742;53.532;-1.478;2024-02-21T10:10:44;12.20;99.90
23147;DHT22;11742;53.532;-1.478;2024-02-21T10:13:29;12.20;99.90
23147;DHT22;11742;53.532;-1.478;2024-02-21T10:16:13;12.20;99.90
23147;DHT22;11742;53.532;-1.478;2024-02-21T10:18:57;12.20;99.90
23147;DHT22;11742;53.532;-1.478;2024-02-21T10:21:41;12.20;99.90
23147;DHT22;11742;53.532;-1.478;2024-02-21T10:24:29;12.20;99.90
23147;DHT22;11742;53.532;-1.478;2024-02-21T10:27:14;12.20;99.90
23147;DHT22;11742;53.532;-1.478;2024-02-21T10:29:58;12.20;99.90
23147;DHT22;11742;53.532;-1.478;2024-02-21T10:32:55;12.20;99.90
23147;DHT22;11742;53.532;-1.478;2024-02-21T10:35:39;12.20;99.90
23147;DHT22;11742;53.532;-1.478;2024-02-21T10:38:23;12.30;99.90
23147;DHT22;11742;53.532;-1.478;2024-02-21T10:41:08;12.20;99.90
23147;DHT22;11742;53.532;-1.478;2024-02-21T10:43:55;12.30;99.90
23147;DHT22;11742;53.532;-1.478;2024-02-21T10:46:42;12.30;99.90
23147;DHT22;11742;53.532;-1.478;2024-02-21T10:49:27;12.30;99.90
23147;DHT22;11742;53.532;-1.478;2024-02-21T10:55:43;12.30;99.90
23147;DHT22;11742;53.532;-1.478;2024-02-21T10:58:31;12.30;99.90
23147;DHT22;11742;53.532;-1.478;2024-02-21T11:01:17;12.30;99.90
23147;DHT22;11742;53.532;-1.478;2024-02-21T11:04:03;12.40;99.90
23147;DHT22;11742;53.532;-1.478;2024-02-21T11:06:48;12.30;99.90
23147;DHT22;11742;53.532;-1.478;2024-02-21T11:09:33;12.30;99.90
23147;DHT22;11742;53.532;-1.478;2024-02-21T11:12:21;12.40;99.90
23147;DHT22;11742;53.532;-1.478;2024-02-21T11:15:06;12.40;99.90
23147;DHT22;11742;53.532;-1.478;2024-02-21T11:17:55;12.40;99.90
23147;DHT22;11742;53.532;-1.478;2024-02-21T11:20:40;12.40;99.90
23147;DHT22;11742;53.532;-1.478;2024-02-21T11:23:26;12.40;99.90
23147;DHT22;11742;53.532;-1.478;2024-02-21T11:26:18;12.40;99.90
23147;DHT22;11742;53.532;-1.478;2024-02-21T11:29:03;12.40;99.90
23147;DHT22;11742;53.532;-1.478;2024-02-21T11:31:53;12.40;99.90
23147;DHT22;11742;53.532;-1.478;2024-02-21T11:34:38;12.40;99.90
23147;DHT22;11742;53.532;-1.478;2024-02-21T11:37:25;12.40;99.90
23147;DHT22;11742;53.532;-1.478;2024-02-21T11:40:11;12.50;99.90
23147;DHT22;11742;53.532;-1.478;2024-02-21T11:42:59;12.50;99.90
23147;DHT22;11742;53.532;-1.478;2024-02-21T11:45:43;12.50;99.90
23147;DHT22;11742;53.532;-1.478;2024-02-21T11:48:28;12.50;99.90
23147;DHT22;11742;53.532;-1.478;2024-02-21T11:51:21;12.50;99.90
23147;DHT22;11742;53.532;-1.478;2024-02-21T11:54:06;12.50;99.90
23147;DHT22;11742;53.532;-1.478;2024-02-21T11:56:50;12.50;99.90
23147;DHT22;11742;53.532;-1.478;2024-02-21T11:59:34;12.50;99.90
23147;DHT22;11742;53.532;-1.478;2024-02-21T12:02:18;12.50;99.90
23147;DHT22;11742;53.532;-1.478;2024-02-21T12:05:04;12.50;99.90
23147;DHT22;11742;53.532;-1.478;2024-02-21T12:07:49;12.60;99.90
23147;DHT22;11742;53.532;-1.478;2024-02-21T12:10:35;12.60;99.90
23147;DHT22;11742;53.532;-1.478;2024-02-21T12:13:23;12.50;99.90
23147;DHT22;11742;53.532;-1.478;2024-02-21T12:16:07;12.60;99.90
23147;DHT22;11742;53.532;-1.478;2024-02-21T12:18:53;12.60;99.90
23147;DHT22;11742;53.532;-1.478;2024-02-21T12:21:37;12.60;99.90
23147;DHT22;11742;53.532;-1.478;2024-02-21T12:24:24;12.60;99.90
23147;DHT22;11742;53.532;-1.478;2024-02-21T12:27:09;12.60;99.90
23147;DHT22;11742;53.532;-1.478;2024-02-21T12:29:53;12.60;99.90
23147;DHT22;11742;53.532;-1.478;2024-02-21T12:32:37;12.60;99.90
23147;DHT22;11742;53.532;-1.478;2024-02-21T12:35:21;12.60;99.90
23147;DHT22;11742;53.532;-1.478;2024-02-21T12:38:06;12.60;99.90
23147;DHT22;11742;53.532;-1.478;2024-02-21T12:40:50;12.60;99.90
23147;DHT22;11742;53.532;-1.478;2024-02-21T12:43:35;12.60;99.90
23147;DHT22;11742;53.532;-1.478;2024-02-21T12:46:19;12.70;99.90
23147;DHT22;11742;53.532;-1.478;2024-02-21T12:49:04;12.70;99.90
23147;DHT22;11742;53.532;-1.478;2024-02-21T12:51:48;12.70;99.90
23147;DHT22;11742;53.532;-1.478;2024-02-21T12:54:33;12.70;99.90
23147;DHT22;11742;53.532;-1.478;2024-02-21T12:57:18;12.70;99.90
23147;DHT22;11742;53.532;-1.478;2024-02-21T13:00:03;12.70;99.90
23147;DHT22;11742;53.532;-1.478;2024-02-21T13:02:48;12.70;99.90
23147;DHT22;11742;53.532;-1.478;2024-02-21T13:05:32;12.70;99.90
23147;DHT22;11742;53.532;-1.478;2024-02-21T13:08:16;12.80;99.90
23147;DHT22;11742;53.532;-1.478;2024-02-21T13:11:01;12.70;99.90
23147;DHT22;11742;53.532;-1.478;2024-02-21T13:13:45;12.70;99.90
23147;DHT22;11742;53.532;-1.478;2024-02-21T13:16:29;12.80;99.90
23147;DHT22;11742;53.532;-1.478;2024-02-21T13:19:14;12.80;99.90
23147;DHT22;11742;53.532;-1.478;2024-02-21T13:22:01;12.80;99.90
23147;DHT22;11742;53.532;-1.478;2024-02-21T13:24:46;12.80;99.90
23147;DHT22;11742;53.532;-1.478;2024-02-21T13:27:31;12.80;99.90
23147;DHT22;11742;53.532;-1.478;2024-02-21T13:30:15;12.80;99.90
23147;DHT22;11742;53.532;-1.478;2024-02-21T13:33:03;12.80;99.90
23147;DHT22;11742;53.532;-1.478;2024-02-21T13:35:47;12.80;99.90
23147;DHT22;11742;53.532;-1.478;2024-02-21T13:38:32;12.90;99.90
23147;DHT22;11742;53.532;-1.478;2024-02-21T13:41:16;12.90;99.90
23147;DHT22;11742;53.532;-1.478;2024-02-21T13:44:01;12.90;99.90
23147;DHT22;11742;53.532;-1.478;2024-02-21T13:46:47;13.00;99.90
23147;DHT22;11742;53.532;-1.478;2024-02-21T13:49:32;13.00;99.90
23147;DHT22;11742;53.532;-1.478;2024-02-21T13:52:16;13.00;99.90
23147;DHT22;11742;53.532;-1.478;2024-02-21T13:55:01;13.00;99.90
23147;DHT22;11742;53.532;-1.478;2024-02-21T13:57:45;13.10;99.90
23147;DHT22;11742;53.532;-1.478;2024-02-21T14:00:29;13.10;99.90
23147;DHT22;11742;53.532;-1.478;2024-02-21T14:03:13;13.10;99.90
23147;DHT22;11742;53.532;-1.478;2024-02-21T14:05:57;13.20;99.90
23147;DHT22;11742;53.532;-1.478;2024-02-21T14:08:42;13.20;99.90
23147;DHT22;11742;53.532;-1.478;2024-02-21T14:11:27;13.20;99.90
23147;DHT22;11742;53.532;-1.478;2024-02-21T14:14:12;13.30;99.90
23147;DHT22;11742;53.532;-1.478;2024-02-21T14:16:58;13.30;99.90
23147;DHT22;11742;53.532;-1.478;2024-02-21T14:19:43;13.30;99.90
23147;DHT22;11742;53.532;-1.478;2024-02-21T14:22:28;13.40;99.90
23147;DHT22;11742;53.532;-1.478;2024-02-21T14:25:13;13.40;99.90
23147;DHT22;11742;53.532;-1.478;2024-02-21T14:27:59;13.50;99.90
23147;DHT22;11742;53.532;-1.478;2024-02-21T14:30:44;13.50;99.90
23147;DHT22;11742;53.532;-1.478;2024-02-21T14:33:29;13.60;99.90
23147;DHT22;11742;53.532;-1.478;2024-02-21T14:36:14;13.60;99.90
23147;DHT22;11742;53.532;-1.478;2024-02-21T14:39:02;13.70;99.90
23147;DHT22;11742;53.532;-1.478;2024-02-21T14:41:49;13.70;99.90
23147;DHT22;11742;53.532;-1.478;2024-02-21T14:44:33;13.70;99.90
23147;DHT22;11742;53.532;-1.478;2024-02-21T14:47:19;13.70;99.90
23147;DHT22;11742;53.532;-1.478;2024-02-21T14:50:04;13.80;99.90
23147;DHT22;11742;53.532;-1.478;2024-02-21T14:52:48;13.90;99.90
23147;DHT22;11742;53.532;-1.478;2024-02-21T14:55:33;13.90;99.90
23147;DHT22;11742;53.532;-1.478;2024-02-21T14:58:18;13.90;99.90
23147;DHT22;11742;53.532;-1.478;2024-02-21T15:01:03;14.00;99.90
23147;DHT22;11742;53.532;-1.478;2024-02-21T15:03:47;14.00;99.90
23147;DHT22;11742;53.532;-1.478;2024-02-21T15:06:31;14.10;99.90
23147;DHT22;11742;53.532;-1.478;2024-02-21T15:09:16;14.10;99.90
23147;DHT22;11742;53.532;-1.478;2024-02-21T15:12:03;14.10;99.90
23147;DHT22;11742;53.532;-1.478;2024-02-21T15:14:47;14.20;99.90
23147;DHT22;11742;53.532;-1.478;2024-02-21T15:17:32;14.20;99.90
23147;DHT22;11742;53.532;-1.478;2024-02-21T15:20:16;14.20;99.90
23147;DHT22;11742;53.532;-1.478;2024-02-21T15:23:00;14.30;99.90
23147;DHT22;11742;53.532;-1.478;2024-02-21T15:25:48;14.30;99.90
23147;DHT22;11742;53.532;-1.478;2024-02-21T15:28:33;14.30;99.90
23147;DHT22;11742;53.532;-1.478;2024-02-21T15:31:24;14.40;99.90
23147;DHT22;11742;53.532;-1.478;2024-02-21T15:34:09;14.40;99.90
23147;DHT22;11742;53.532;-1.478;2024-02-21T15:36:53;14.40;99.90
23147;DHT22;11742;53.532;-1.478;2024-02-21T15:39:38;14.40;99.90
23147;DHT22;11742;53.532;-1.478;2024-02-21T15:42:22;14.50;99.90
23147;DHT22;11742;53.532;-1.478;2024-02-21T15:45:06;14.50;99.90
23147;DHT22;11742;53.532;-1.478;2024-02-21T15:47:51;14.50;99.90
23147;DHT22;11742;53.532;-1.478;2024-02-21T15:50:35;14.50;99.90
23147;DHT22;11742;53.532;-1.478;2024-02-21T15:53:19;14.50;99.90
23147;DHT22;11742;53.532;-1.478;2024-02-21T15:56:04;14.60;99.90
23147;DHT22;11742;53.532;-1.478;2024-02-21T15:58:49;14.60;99.90
23147;DHT22;11742;53.532;-1.478;2024-02-21T16:01:33;14.60;99.90
23147;DHT22;11742;53.532;-1.478;2024-02-21T16:04:18;14.60;99.90
23147;DHT22;11742;53.532;-1.478;2024-02-21T16:07:03;14.70;99.90
23147;DHT22;11742;53.532;-1.478;2024-02-21T16:09:47;14.70;99.90
23147;DHT22;11742;53.532;-1.478;2024-02-21T16:12:32;14.70;99.90
23147;DHT22;11742;53.532;-1.478;2024-02-21T16:15:16;14.70;99.90
23147;DHT22;11742;53.532;-1.478;2024-02-21T16:18:00;14.70;99.90
23147;DHT22;11742;53.532;-1.478;2024-02-21T16:20:44;14.70;99.90
23147;DHT22;11742;53.532;-1.478;2024-02-21T16:23:28;14.80;99.90
23147;DHT22;11742;53.532;-1.478;2024-02-21T16:26:12;14.80;99.90
23147;DHT22;11742;53.532;-1.478;2024-02-21T16:28:56;14.80;99.90
23147;DHT22;11742;53.532;-1.478;2024-02-21T16:31:41;14.80;99.90
23147;DHT22;11742;53.532;-1.478;2024-02-21T16:34:26;14.80;99.90
23147;DHT22;11742;53.532;-1.478;2024-02-21T16:37:11;14.80;99.90
23147;DHT22;11742;53.532;-1.478;2024-02-21T16:39:57;14.80;99.90
23147;DHT22;11742;53.532;-1.478;2024-02-21T16:42:41;14.80;99.90
23147;DHT22;11742;53.532;-1.478;2024-02-21T16:45:26;14.80;99.90
23147;DHT22;11742;53.532;-1.478;2024-02-21T16:48:10;14.80;99.90
23147;DHT22;11742;53.532;-1.478;2024-02-21T16:50:54;14.90;99.90
23147;DHT22;11742;53.532;-1.478;2024-02-21T16:53:39;14.90;99.90
23147;DHT22;11742;53.532;-1.478;2024-02-21T16:56:23;14.80;99.90
23147;DHT22;11742;53.532;-1.478;2024-02-21T16:59:07;14.90;99.90
23147;DHT22;11742;53.532;-1.478;2024-02-21T17:01:51;14.90;99.90
23147;DHT22;11742;53.532;-1.478;2024-02-21T17:04:36;14.90;99.90
23147;DHT22;11742;53.532;-1.478;2024-02-21T17:07:20;14.90;99.90